Time;durP1;ratioP1;P1;durP2;ratioP2;P2;SDS_P1;SDS_P2;PMS_P1;PMS_P2;Temp;Humidity;BMP_temperature;BMP_pressure;BME280_temperature;BME280_humidity;BME280_pressure;Samples;Min_cycle;Max_cycle;Signal;HPM_P1;HPM_P2
2021/06/12 00:01:16;;;;;;;12.02;10.55;;;16.40;99.90;;;;;;5108164;28;20032;-78
2021/06/12 00:03:41;;;;;;;12.52;10.70;;;16.40;99.90;;;;;;5068542;28;20032;-77
2021/06/12 00:06:07;;;;;;;14.43;10.23;;;16.40;99.90;;;;;;5109838;28;20040;-78
2021/06/12 00:08:34;;;;;;;12.93;10.68;;;16.40;99.90;;;;;;5110091;27;20023;-78
2021/06/12 00:11:01;;;;;;;12.00;10.52;;;16.30;99.90;;;;;;5109921;28;20398;-78
2021/06/12 00:13:27;;;;;;;13.60;10.35;;;16.40;99.90;;;;;;5108337;28;20054;-78
2021/06/12 00:15:53;;;;;;;13.23;11.00;;;16.40;99.90;;;;;;5099083;28;20035;-78
2021/06/12 00:18:19;;;;;;;12.18;10.60;;;16.40;99.90;;;;;;5111792;28;20042;-78
2021/06/12 00:20:45;;;;;;;11.68;10.38;;;16.40;99.90;;;;;;5105059;28;20028;-78
2021/06/12 00:23:11;;;;;;;12.32;10.07;;;16.40;99.90;;;;;;5104432;28;20039;-78
2021/06/12 00:25:39;;;;;;;10.77;9.48;;;16.40;99.90;;;;;;5102224;28;20155;-78
2021/06/12 00:28:06;;;;;;;12.15;10.15;;;16.30;99.90;;;;;;5109731;28;20482;-78
2021/06/12 00:30:32;;;;;;;11.75;9.95;;;16.30;99.90;;;;;;5106356;28;20682;-78
2021/06/12 00:32:59;;;;;;;12.10;10.10;;;16.30;99.90;;;;;;5085265;28;20383;-78
2021/06/12 00:35:25;;;;;;;12.88;10.45;;;16.30;99.90;;;;;;5094138;28;20062;-77
2021/06/12 00:37:50;;;;;;;12.23;10.25;;;16.30;99.90;;;;;;5107214;28;20404;-78
2021/06/12 00:40:18;;;;;;;11.52;10.25;;;16.30;99.90;;;;;;5104131;28;20482;-78
2021/06/12 00:42:45;;;;;;;13.43;11.18;;;16.30;99.90;;;;;;5102822;28;20039;-78
2021/06/12 00:45:14;;;;;;;11.73;10.52;;;16.30;99.90;;;;;;5116503;27;20046;-78
2021/06/12 00:47:40;;;;;;;11.88;10.60;;;16.30;99.90;;;;;;5109127;28;20100;-78
2021/06/12 00:50:08;;;;;;;14.18;10.98;;;16.30;99.90;;;;;;5103882;28;20047;-78
2021/06/12 00:52:36;;;;;;;13.15;11.23;;;16.20;99.90;;;;;;5106969;28;20035;-79
2021/06/12 00:55:02;;;;;;;12.35;10.60;;;16.20;99.90;;;;;;5085323;28;20051;-78
2021/06/12 00:57:28;;;;;;;12.60;9.75;;;16.20;99.90;;;;;;5107872;28;20482;-78
2021/06/12 00:59:54;;;;;;;11.20;9.77;;;16.10;99.90;;;;;;5085464;28;20032;-78
2021/06/12 01:02:19;;;;;;;13.52;10.65;;;16.10;99.90;;;;;;5102340;28;20055;-78
2021/06/12 01:04:45;;;;;;;10.45;9.25;;;16.10;99.90;;;;;;5105233;28;20077;-78
2021/06/12 01:07:11;;;;;;;11.48;10.20;;;16.10;99.90;;;;;;5101175;28;20093;-78
2021/06/12 01:09:36;;;;;;;11.35;10.00;;;16.10;99.90;;;;;;5110399;27;20027;-78
2021/06/12 01:12:27;;;;;;;14.20;11.23;;;16.10;99.90;;;;;;5113346;28;20053;-78
2021/06/12 01:14:59;;;;;;;13.60;10.90;;;16.00;99.90;;;;;;5104232;28;20031;-77
2021/06/12 01:17:32;;;;;;;10.98;9.68;;;15.90;99.90;;;;;;5091448;28;20107;-77
2021/06/12 01:20:07;;;;;;;12.57;10.38;;;15.90;99.90;;;;;;5108325;28;20588;-78
2021/06/12 01:22:45;;;;;;;;;;;15.80;99.90;;;;;;5107042;28;20023;-77
2021/06/12 01:25:33;;;;;;;10.95;9.68;;;15.80;99.90;;;;;;5107685;28;20326;-78
2021/06/12 01:28:27;;;;;;;11.80;10.35;;;15.80;99.90;;;;;;5109828;28;20080;-78
2021/06/12 01:30:55;;;;;;;12.52;9.82;;;15.80;99.90;;;;;;5104019;28;20032;-78
2021/06/12 01:33:21;;;;;;;12.60;10.23;;;15.80;99.90;;;;;;5109220;28;20023;-78
2021/06/12 01:35:53;;;;;;;12.02;10.40;;;15.80;99.90;;;;;;5111344;28;20072;-78
2021/06/12 01:38:31;;;;;;;12.05;10.82;;;15.80;99.90;;;;;;5102374;28;20085;-78
2021/06/12 01:41:01;;;;;;;11.88;9.63;;;15.80;99.90;;;;;;5106625;28;20039;-78
2021/06/12 01:43:30;;;;;;;12.70;10.55;;;15.80;99.90;;;;;;5110872;28;20024;-78
2021/06/12 01:45:56;;;;;;;13.60;10.77;;;15.80;99.90;;;;;;5093996;28;20036;-78
2021/06/12 01:48:22;;;;;;;14.15;11.82;;;15.80;99.90;;;;;;5109493;28;20064;-78
2021/06/12 01:50:49;;;;;;;14.73;11.32;;;15.90;99.90;;;;;;5106063;28;20424;-78
2021/06/12 01:53:18;;;;;;;14.50;11.80;;;15.90;99.90;;;;;;5109571;28;20028;-77
2021/06/12 01:55:46;;;;;;;13.68;11.50;;;15.90;99.90;;;;;;5087000;28;20051;-78
2021/06/12 01:58:21;;;;;;;12.38;10.70;;;15.90;99.90;;;;;;5098563;28;20035;-78
2021/06/12 02:00:48;;;;;;;14.00;10.13;;;16.00;99.90;;;;;;5108477;28;20108;-78
2021/06/12 02:03:16;;;;;;;11.65;10.45;;;16.00;99.90;;;;;;5092451;28;20036;-78
2021/06/12 02:05:43;;;;;;;12.60;9.40;;;15.90;99.90;;;;;;5101496;28;20032;-78
2021/06/12 02:08:10;;;;;;;10.30;8.93;;;15.90;99.90;;;;;;5113701;27;20479;-78
2021/06/12 02:10:37;;;;;;;10.13;8.82;;;15.90;99.90;;;;;;5104169;28;20031;-78
2021/06/12 02:13:03;;;;;;;10.32;9.00;;;15.80;99.90;;;;;;5077764;28;20051;-77
2021/06/12 02:15:30;;;;;;;13.20;8.57;;;15.80;99.90;;;;;;5099108;28;20496;-78
2021/06/12 02:18:06;;;;;;;9.52;8.52;;;15.70;99.90;;;;;;5099511;28;20032;-78
2021/06/12 02:20:34;;;;;;;10.70;9.40;;;15.70;99.90;;;;;;5101856;28;20043;-78
2021/06/12 02:23:02;;;;;;;11.55;9.75;;;15.70;99.90;;;;;;5101456;28;20027;-78
2021/06/12 02:25:28;;;;;;;11.40;10.13;;;15.60;99.90;;;;;;5103718;28;20035;-78
2021/06/12 02:27:55;;;;;;;12.95;10.88;;;15.60;99.90;;;;;;5099193;28;20028;-78
2021/06/12 02:30:25;;;;;;;11.98;10.68;;;15.60;99.90;;;;;;5099702;28;20450;-78
2021/06/12 02:32:54;;;;;;;15.35;12.27;;;15.60;99.90;;;;;;5093811;28;20042;-77
2021/06/12 02:35:20;;;;;;;13.43;11.20;;;15.50;99.90;;;;;;5094056;28;20078;-78
2021/06/12 02:37:46;;;;;;;15.65;12.15;;;15.50;99.90;;;;;;5102981;28;20028;-78
2021/06/12 02:40:13;;;;;;;15.07;11.63;;;15.50;99.90;;;;;;5099440;28;20028;-78
2021/06/12 02:42:39;;;;;;;13.90;11.30;;;15.40;99.90;;;;;;5103261;28;20724;-78
2021/06/12 02:45:07;;;;;;;14.70;10.77;;;15.40;99.90;;;;;;5111786;28;20024;-78
2021/06/12 02:47:41;;;;;;;12.98;11.18;;;15.40;99.90;;;;;;5105069;28;20107;-78
2021/06/12 02:50:08;;;;;;;12.73;11.07;;;15.30;99.90;;;;;;5105358;28;20632;-78
2021/06/12 02:52:35;;;;;;;12.35;9.90;;;15.20;99.90;;;;;;5109049;28;20387;-78
2021/06/12 02:55:07;;;;;;;12.15;10.85;;;15.20;99.90;;;;;;5096920;28;20508;-78
2021/06/12 02:57:34;;;;;;;17.98;11.05;;;15.20;99.90;;;;;;5108420;28;20077;-78
2021/06/12 03:00:03;;;;;;;13.02;10.88;;;15.20;99.90;;;;;;5104631;28;20020;-77
2021/06/12 03:02:31;;;;;;;12.98;11.10;;;15.20;99.90;;;;;;5101470;28;20540;-78
2021/06/12 03:04:59;;;;;;;12.60;10.95;;;15.20;99.90;;;;;;5104791;28;20814;-77
2021/06/12 03:07:27;;;;;;;14.75;10.60;;;15.10;99.90;;;;;;5102981;28;20485;-77
2021/06/12 03:09:53;;;;;;;13.20;11.27;;;15.10;99.90;;;;;;5091364;28;20023;-78
2021/06/12 03:12:20;;;;;;;13.48;11.07;;;15.10;99.90;;;;;;5081538;28;20035;-78
2021/06/12 03:14:48;;;;;;;13.57;11.65;;;15.10;99.90;;;;;;5102753;28;20498;-77
2021/06/12 03:17:15;;;;;;;12.25;10.68;;;15.10;99.90;;;;;;5106023;28;20024;-78
2021/06/12 03:19:42;;;;;;;13.57;11.57;;;15.10;99.90;;;;;;5086240;28;20040;-77
2021/06/12 03:22:09;;;;;;;15.63;11.98;;;15.00;99.90;;;;;;5107989;28;20030;-78
2021/06/12 03:24:36;;;;;;;14.07;11.85;;;15.10;99.90;;;;;;5113595;28;20051;-77
2021/06/12 03:27:02;;;;;;;13.90;11.18;;;15.10;99.90;;;;;;5109645;28;20048;-78
2021/06/12 03:29:29;;;;;;;14.35;11.40;;;15.00;99.90;;;;;;5112745;28;20035;-78
2021/06/12 03:31:56;;;;;;;14.82;11.35;;;15.00;99.90;;;;;;5116310;28;20038;-78
2021/06/12 03:34:23;;;;;;;13.68;10.77;;;15.10;99.90;;;;;;5090656;28;20051;-78
2021/06/12 03:36:50;;;;;;;13.05;10.25;;;15.10;99.90;;;;;;5103834;28;20032;-78
2021/06/12 03:39:16;;;;;;;11.75;9.57;;;15.10;99.90;;;;;;5099535;28;20100;-78
2021/06/12 03:41:43;;;;;;;12.85;10.57;;;15.20;99.90;;;;;;5103202;28;20472;-78
2021/06/12 03:44:11;;;;;;;13.25;10.73;;;15.20;99.90;;;;;;5100067;28;20143;-78
2021/06/12 03:46:37;;;;;;;12.90;9.88;;;15.20;99.90;;;;;;5098231;28;20035;-78
2021/06/12 03:49:03;;;;;;;12.35;9.63;;;15.10;99.90;;;;;;5110930;28;20046;-78
2021/06/12 03:51:29;;;;;;;13.85;10.90;;;15.10;99.90;;;;;;5102794;28;20073;-77
2021/06/12 03:53:57;;;;;;;11.55;10.27;;;15.10;99.90;;;;;;5104763;28;20034;-77
2021/06/12 03:56:30;;;;;;;11.60;10.23;;;15.20;99.90;;;;;;5110924;28;20042;-78
2021/06/12 03:58:56;;;;;;;11.27;9.35;;;15.20;99.90;;;;;;5103962;28;20028;-78
2021/06/12 04:01:21;;;;;;;10.43;9.35;;;15.30;99.90;;;;;;5104994;28;20036;-78
2021/06/12 04:03:47;;;;;;;12.23;9.63;;;15.30;99.90;;;;;;5105631;28;20067;-77
2021/06/12 04:06:13;;;;;;;13.23;10.18;;;15.40;99.90;;;;;;5102944;28;20032;-77
2021/06/12 04:08:40;;;;;;;11.05;9.38;;;15.40;99.90;;;;;;5107957;27;20034;-77
2021/06/12 04:11:07;;;;;;;11.85;9.82;;;15.50;99.90;;;;;;5104477;28;20047;-78
2021/06/12 04:13:33;;;;;;;10.88;9.50;;;15.50;99.90;;;;;;5099566;28;20089;-77
2021/06/12 04:15:58;;;;;;;11.13;9.48;;;15.50;99.90;;;;;;5100677;28;20483;-77
2021/06/12 04:18:24;;;;;;;10.68;9.23;;;15.50;99.90;;;;;;5105163;28;20043;-78
2021/06/12 04:20:50;;;;;;;15.05;9.25;;;15.50;99.90;;;;;;5106812;28;20097;-77
2021/06/12 04:23:16;;;;;;;12.88;10.27;;;15.50;99.90;;;;;;5108255;28;20052;-78
2021/06/12 04:25:42;;;;;;;11.18;9.10;;;15.50;99.90;;;;;;5108615;28;20032;-77
2021/06/12 04:28:07;;;;;;;11.82;10.38;;;15.60;99.90;;;;;;5101724;28;20036;-77
2021/06/12 04:30:33;;;;;;;15.02;10.02;;;15.60;99.90;;;;;;5101441;28;20028;-78
2021/06/12 04:33:01;;;;;;;13.60;10.82;;;15.70;99.90;;;;;;5108570;28;20057;-78
2021/06/12 04:35:30;;;;;;;12.30;10.52;;;15.70;99.90;;;;;;5102220;28;20499;-78
2021/06/12 04:37:59;;;;;;;11.98;9.98;;;15.80;99.90;;;;;;5100586;28;20050;-77
2021/06/12 04:40:28;;;;;;;12.82;10.43;;;15.90;99.90;;;;;;5112417;28;20024;-78
2021/06/12 04:42:53;;;;;;;12.43;10.10;;;16.00;99.90;;;;;;5107892;28;20390;-78
2021/06/12 04:45:19;;;;;;;12.60;10.75;;;16.10;99.90;;;;;;5113954;27;20051;-77
2021/06/12 04:47:45;;;;;;;15.80;12.88;;;16.20;99.90;;;;;;5103241;28;20024;-78
2021/06/12 04:50:11;;;;;;;13.77;11.10;;;16.30;99.90;;;;;;5103589;28;20035;-78
2021/06/12 04:52:38;;;;;;;12.32;10.40;;;16.40;99.90;;;;;;5112268;28;20038;-78
2021/06/12 04:55:09;;;;;;;11.23;10.00;;;16.50;99.90;;;;;;5107193;28;20024;-78
2021/06/12 04:57:35;;;;;;;10.15;9.10;;;16.70;99.90;;;;;;5107867;28;20907;-78
2021/06/12 05:00:01;;;;;;;10.50;9.18;;;16.80;99.90;;;;;;5101415;28;20020;-78
2021/06/12 05:02:27;;;;;;;10.75;9.13;;;16.90;99.90;;;;;;5113411;28;20039;-78
2021/06/12 05:04:52;;;;;;;10.57;9.05;;;17.00;99.90;;;;;;5107403;28;20036;-77
2021/06/12 05:07:18;;;;;;;10.40;9.05;;;17.10;99.90;;;;;;5112093;28;20063;-77
2021/06/12 05:09:44;;;;;;;12.32;9.18;;;17.20;99.90;;;;;;5106999;28;20504;-77
2021/06/12 05:12:10;;;;;;;11.65;10.45;;;17.30;99.90;;;;;;5108945;28;20028;-77
2021/06/12 05:14:36;;;;;;;9.77;8.77;;;17.40;99.90;;;;;;5069956;28;20059;-78
2021/06/12 05:17:04;;;;;;;11.52;9.32;;;17.50;99.90;;;;;;5101401;28;20032;-78
2021/06/12 05:19:30;;;;;;;10.30;8.30;;;17.70;99.90;;;;;;5100765;28;20123;-78
2021/06/12 05:21:56;;;;;;;10.60;8.52;;;17.90;99.90;;;;;;5113488;28;20059;-78
2021/06/12 05:24:22;;;;;;;9.93;8.93;;;18.10;99.90;;;;;;5109165;28;20056;-78
2021/06/12 05:26:47;;;;;;;10.02;9.00;;;18.30;99.90;;;;;;5100118;28;20043;-78
2021/06/12 05:29:13;;;;;;;8.48;7.60;;;18.50;99.90;;;;;;5109295;28;20107;-78
2021/06/12 05:31:39;;;;;;;9.88;8.20;;;18.70;99.90;;;;;;5087101;28;20043;-77
2021/06/12 05:34:04;;;;;;;8.68;7.78;;;18.80;99.90;;;;;;5091908;28;20031;-78
2021/06/12 05:36:31;;;;;;;8.77;7.97;;;18.90;99.90;;;;;;5111799;28;20043;-77
2021/06/12 05:38:57;;;;;;;10.93;9.77;;;19.00;99.90;;;;;;5109976;28;20024;-79
2021/06/12 05:41:23;;;;;;;11.15;9.93;;;19.20;99.90;;;;;;5112518;28;20028;-76
2021/06/12 05:43:49;;;;;;;12.68;10.40;;;19.30;99.90;;;;;;5102506;28;20099;-78
2021/06/12 05:46:15;;;;;;;11.23;9.75;;;19.30;99.90;;;;;;5113682;27;20051;-79
2021/06/12 05:48:41;;;;;;;10.60;8.75;;;19.30;99.90;;;;;;5107394;28;20123;-79
2021/06/12 05:51:06;;;;;;;11.30;9.50;;;19.50;99.90;;;;;;5093124;28;20084;-77
2021/06/12 05:53:32;;;;;;;12.70;11.40;;;19.80;99.90;;;;;;5102890;28;20030;-78
2021/06/12 05:55:59;;;;;;;11.20;9.63;;;20.20;99.90;;;;;;5107946;28;20032;-77
2021/06/12 05:58:24;;;;;;;8.18;7.32;;;20.70;99.90;;;;;;5102778;28;20027;-78
2021/06/12 06:00:50;;;;;;;9.55;8.55;;;21.10;99.90;;;;;;5097735;28;20058;-78
2021/06/12 06:03:16;;;;;;;10.20;9.07;;;21.20;99.90;;;;;;5109578;28;20307;-79
2021/06/12 06:05:42;;;;;;;10.20;8.75;;;21.20;99.90;;;;;;5108305;28;20054;-77
2021/06/12 06:08:07;;;;;;;12.35;9.27;;;21.20;99.90;;;;;;5113259;28;20036;-78
2021/06/12 06:10:33;;;;;;;10.45;9.35;;;21.10;99.90;;;;;;5113621;28;20055;-78
2021/06/12 06:13:03;;;;;;;9.85;8.85;;;21.20;99.90;;;;;;5108760;28;20038;-78
2021/06/12 06:15:28;;;;;;;11.95;9.57;;;21.50;99.90;;;;;;5107359;28;20087;-78
2021/06/12 06:17:54;;;;;;;11.40;9.32;;;21.80;99.90;;;;;;5104504;28;20055;-78
2021/06/12 06:20:20;;;;;;;11.13;9.48;;;22.00;99.90;;;;;;5108971;28;20131;-77
2021/06/12 06:22:45;;;;;;;9.23;8.32;;;21.90;99.90;;;;;;5108509;28;20133;-78
2021/06/12 06:25:12;;;;;;;9.45;8.40;;;21.90;99.90;;;;;;5112961;28;20035;-78
2021/06/12 06:27:38;;;;;;;11.65;9.55;;;22.10;99.90;;;;;;5092376;28;20039;-78
2021/06/12 06:30:05;;;;;;;10.07;9.07;;;22.40;99.90;;;;;;5108507;28;20032;-78
2021/06/12 06:32:31;;;;;;;9.23;8.32;;;22.90;99.90;;;;;;5092579;28;20036;-78
2021/06/12 06:34:56;;;;;;;9.60;8.70;;;23.10;99.90;;;;;;5104712;28;20483;-77
2021/06/12 06:37:22;;;;;;;10.98;9.45;;;23.20;99.90;;;;;;5105889;28;20626;-79
2021/06/12 06:39:48;;;;;;;9.68;8.70;;;23.50;99.90;;;;;;5107998;28;20096;-77
2021/06/12 06:42:14;;;;;;;10.43;8.93;;;23.90;99.90;;;;;;5089940;28;20043;-79
2021/06/12 06:44:39;;;;;;;11.05;9.95;;;24.40;99.90;;;;;;5106231;28;20043;-78
2021/06/12 06:47:06;;;;;;;10.52;9.43;;;24.80;99.90;;;;;;5109512;28;20345;-78
2021/06/12 06:49:32;;;;;;;10.30;9.30;;;25.20;99.90;;;;;;5113928;28;20036;-77
2021/06/12 06:51:58;;;;;;;10.13;9.10;;;25.40;99.90;;;;;;5111862;27;20023;-77
2021/06/12 06:54:24;;;;;;;9.02;8.13;;;25.60;99.90;;;;;;5113594;28;20035;-78
2021/06/12 06:56:49;;;;;;;10.25;8.93;;;25.60;99.90;;;;;;5109221;28;20036;-79
2021/06/12 06:59:16;;;;;;;9.85;8.85;;;25.50;99.90;;;;;;5111525;27;20038;-77
2021/06/12 07:01:42;;;;;;;10.15;9.15;;;25.60;99.90;;;;;;5111680;27;20051;-78
2021/06/12 07:04:08;;;;;;;10.23;9.27;;;26.10;99.90;;;;;;5107769;27;20077;-79
2021/06/12 07:06:33;;;;;;;9.32;8.43;;;26.40;99.90;;;;;;5109775;28;20033;-77
2021/06/12 07:08:59;;;;;;;10.52;8.88;;;26.20;99.90;;;;;;5111988;28;20049;-78
2021/06/12 07:11:25;;;;;;;9.57;8.57;;;25.60;99.90;;;;;;5107517;28;20067;-77
2021/06/12 07:13:51;;;;;;;8.65;7.85;;;25.30;99.90;;;;;;5104133;28;20028;-78
2021/06/12 07:16:16;;;;;;;8.93;7.97;;;25.10;99.90;;;;;;5118012;27;20515;-77
2021/06/12 07:18:42;;;;;;;8.00;7.28;;;25.00;99.90;;;;;;5098354;28;20106;-79
2021/06/12 07:21:08;;;;;;;9.13;8.23;;;25.00;99.90;;;;;;5098398;28;20570;-77
2021/06/12 07:23:33;;;;;;;8.52;7.68;;;25.00;99.90;;;;;;5115677;28;20061;-77
2021/06/12 07:25:59;;;;;;;9.15;8.05;;;25.30;99.90;;;;;;5111127;28;20505;-78
2021/06/12 07:28:25;;;;;;;8.43;7.63;;;25.70;99.90;;;;;;5106465;28;20028;-77
2021/06/12 07:30:51;;;;;;;7.32;6.63;;;26.10;99.90;;;;;;5096599;28;20051;-78
2021/06/12 07:33:18;;;;;;;7.88;7.18;;;26.50;99.90;;;;;;5102867;27;20110;-79
2021/06/12 07:35:45;;;;;;;7.97;7.03;;;27.00;99.90;;;;;;5081304;28;20053;-78
2021/06/12 07:38:12;;;;;;;8.38;7.43;;;27.30;99.90;;;;;;5107706;28;20051;-79
2021/06/12 07:40:39;;;;;;;8.00;6.18;;;27.50;99.20;;;;;;5117175;28;20024;-80
2021/06/12 07:43:05;;;;;;;7.50;6.80;;;27.30;99.30;;;;;;5094214;28;20036;-78
2021/06/12 07:45:40;;;;;;;7.60;6.93;;;27.50;99.90;;;;;;5110240;28;20044;-79
2021/06/12 07:48:10;;;;;;;8.38;7.45;;;27.90;99.20;;;;;;5123646;28;20036;-80
2021/06/12 07:50:36;;;;;;;7.50;6.80;;;28.30;97.60;;;;;;5109706;28;20058;-80
2021/06/12 07:53:02;;;;;;;7.70;7.07;;;28.70;93.80;;;;;;5089708;28;20039;-78
2021/06/12 07:55:28;;;;;;;7.85;7.13;;;29.00;92.10;;;;;;5105228;28;20062;-79
2021/06/12 07:57:58;;;;;;;8.05;7.25;;;29.10;91.80;;;;;;5093032;28;20128;-78
2021/06/12 08:00:24;;;;;;;7.65;6.95;;;29.00;93.10;;;;;;5104507;27;20038;-78
2021/06/12 08:02:50;;;;;;;8.15;7.45;;;29.10;93.20;;;;;;5112016;27;20087;-79
2021/06/12 08:05:16;;;;;;;7.43;6.65;;;29.40;91.10;;;;;;5103073;28;20118;-78
2021/06/12 08:07:42;;;;;;;6.90;6.30;;;29.50;90.80;;;;;;5090288;28;20032;-79
2021/06/12 08:10:08;;;;;;;7.80;6.88;;;29.50;90.30;;;;;;5088302;28;20063;-78
2021/06/12 08:12:34;;;;;;;7.68;6.97;;;29.50;90.30;;;;;;5100499;28;20039;-78
2021/06/12 08:15:00;;;;;;;7.38;6.68;;;29.60;88.50;;;;;;5106432;28;20023;-79
2021/06/12 08:17:25;;;;;;;6.90;6.25;;;29.60;83.70;;;;;;5093128;28;20027;-80
2021/06/12 08:19:51;;;;;;;6.55;5.95;;;29.50;82.00;;;;;;5076020;28;20016;-80
2021/06/12 08:22:17;;;;;;;7.80;6.13;;;29.20;87.00;;;;;;5079119;28;20558;-81
2021/06/12 08:24:43;;;;;;;5.25;4.82;;;29.00;85.30;;;;;;5107928;28;20035;-79
2021/06/12 08:27:09;;;;;;;4.80;4.43;;;28.70;89.00;;;;;;5105635;28;20588;-80
2021/06/12 08:29:34;;;;;;;6.30;5.32;;;28.50;90.10;;;;;;5069613;28;20028;-81
2021/06/12 08:32:00;;;;;;;5.68;5.03;;;28.20;89.60;;;;;;5106421;28;20437;-80
2021/06/12 08:34:26;;;;;;;4.90;4.50;;;28.00;90.50;;;;;;5106479;28;20440;-81
2021/06/12 08:36:52;;;;;;;5.07;4.53;;;27.80;90.90;;;;;;5107530;28;20092;-82
2021/06/12 08:39:18;;;;;;;4.80;4.38;;;27.70;91.40;;;;;;5075005;28;20025;-83
2021/06/12 08:41:44;;;;;;;4.90;4.50;;;27.70;91.90;;;;;;5095781;28;20114;-81
2021/06/12 08:44:11;;;;;;;5.57;4.10;;;27.90;90.40;;;;;;5101184;28;20047;-80
2021/06/12 08:46:38;;;;;;;5.07;4.03;;;28.20;88.50;;;;;;5105169;28;20036;-82
2021/06/12 08:49:04;;;;;;;4.85;4.45;;;28.50;82.40;;;;;;5104082;28;20035;-81
2021/06/12 08:51:30;;;;;;;5.20;4.70;;;28.50;80.70;;;;;;5077865;28;20034;-81
2021/06/12 08:53:55;;;;;;;6.22;4.93;;;28.60;82.80;;;;;;5094288;28;20111;-80
2021/06/12 08:56:21;;;;;;;4.35;3.78;;;28.70;79.90;;;;;;5110612;28;20028;-81
2021/06/12 08:58:48;;;;;;;5.43;4.93;;;28.90;82.90;;;;;;5105527;28;20043;-81
2021/06/12 09:01:14;;;;;;;4.05;3.75;;;29.00;82.60;;;;;;5106556;28;20020;-81
2021/06/12 09:03:45;;;;;;;5.10;4.30;;;29.10;84.10;;;;;;5104429;28;20032;-80
2021/06/12 09:06:13;;;;;;;3.90;3.55;;;29.20;83.00;;;;;;5098139;28;20036;-81
2021/06/12 09:08:40;;;;;;;4.70;3.97;;;29.10;83.90;;;;;;5103602;28;20705;-81
2021/06/12 09:11:11;;;;;;;3.90;3.60;;;29.10;84.00;;;;;;5104825;28;20032;-81
2021/06/12 09:13:46;;;;;;;4.45;4.05;;;28.80;82.60;;;;;;5108416;28;20031;-80
2021/06/12 09:16:30;;;;;;;7.77;4.43;;;28.70;82.40;;;;;;5086454;28;20176;-82
2021/06/12 09:19:05;;;;;;;4.47;4.07;;;28.30;80.00;;;;;;5104815;28;20020;-80
2021/06/12 09:21:35;;;;;;;4.72;4.15;;;28.00;82.20;;;;;;5091919;28;20047;-78
2021/06/12 09:24:18;;;;;;;4.70;4.25;;;27.80;84.90;;;;;;5097220;28;20024;-83
2021/06/12 09:26:49;;;;;;;4.65;4.25;;;27.60;87.80;;;;;;5105717;28;20737;-82
2021/06/12 09:29:19;;;;;;;4.00;3.70;;;27.60;85.10;;;;;;5104079;28;20035;-82
2021/06/12 09:31:49;;;;;;;4.90;3.95;;;27.60;87.70;;;;;;5091675;27;20640;-80
2021/06/12 09:34:18;;;;;;;5.45;4.13;;;27.60;88.20;;;;;;5096673;27;20042;-82
2021/06/12 09:36:46;;;;;;;4.47;3.70;;;27.50;82.60;;;;;;5084547;28;20112;-81
2021/06/12 09:39:15;;;;;;;6.40;3.42;;;27.30;83.90;;;;;;5088107;28;20036;-82
2021/06/12 09:41:46;;;;;;;4.38;3.80;;;27.30;86.20;;;;;;5108614;28;20542;-81
2021/06/12 09:44:35;;;;;;;4.03;3.60;;;27.30;87.70;;;;;;5101964;28;20036;-81
2021/06/12 09:47:22;;;;;;;4.68;4.18;;;27.30;88.70;;;;;;5103169;28;20031;-80
2021/06/12 09:49:48;;;;;;;4.63;3.90;;;27.20;90.00;;;;;;5113710;28;20109;-80
2021/06/12 09:52:19;;;;;;;3.83;3.53;;;27.00;86.90;;;;;;5110848;28;20031;-80
2021/06/12 09:54:47;;;;;;;3.58;3.38;;;26.90;88.00;;;;;;5111893;28;20020;-80
2021/06/12 09:57:19;;;;;;;4.50;3.70;;;26.80;90.40;;;;;;5116232;27;20499;-80
2021/06/12 09:59:56;;;;;;;3.95;3.38;;;26.80;90.60;;;;;;5109677;28;20052;-82
2021/06/12 10:02:44;;;;;;;7.07;3.45;;;26.70;90.40;;;;;;5079256;28;20172;-81
2021/06/12 10:05:15;;;;;;;4.75;3.80;;;26.60;91.10;;;;;;5090631;28;20115;-82
2021/06/12 10:07:42;;;;;;;3.50;3.20;;;26.50;90.60;;;;;;5094525;28;20040;-80
2021/06/12 10:10:12;;;;;;;3.20;3.00;;;26.40;91.20;;;;;;5109591;28;20024;-80
2021/06/12 10:12:39;;;;;;;3.50;3.20;;;26.50;91.60;;;;;;5112950;28;20055;-80
2021/06/12 10:15:11;;;;;;;3.55;3.25;;;26.70;92.40;;;;;;5102715;28;20020;-80
2021/06/12 10:17:45;;;;;;;3.22;2.92;;;26.70;92.70;;;;;;5098215;28;20055;-82
2021/06/12 10:20:12;;;;;;;3.60;3.30;;;26.90;93.10;;;;;;5107908;28;20028;-80
2021/06/12 10:22:42;;;;;;;3.08;2.78;;;27.00;91.50;;;;;;5092504;28;20085;-81
2021/06/12 10:25:10;;;;;;;4.05;2.78;;;27.10;90.00;;;;;;5091855;28;20107;-81
2021/06/12 10:27:38;;;;;;;3.33;3.03;;;27.20;91.30;;;;;;5091663;28;20036;-81
2021/06/12 10:30:04;;;;;;;15.07;7.00;;;27.20;86.50;;;;;;5079771;28;20042;-81
2021/06/12 10:32:31;;;;;;;4.45;3.60;;;27.20;90.00;;;;;;5093002;28;20027;-83
2021/06/12 10:35:02;;;;;;;9.93;4.32;;;27.20;90.70;;;;;;5091553;28;20051;-81
2021/06/12 10:37:28;;;;;;;4.45;3.30;;;27.30;91.90;;;;;;5108314;28;20490;-85
2021/06/12 10:40:06;;;;;;;4.03;3.35;;;27.50;90.80;;;;;;5108502;28;20035;-80
2021/06/12 10:42:31;;;;;;;8.38;3.53;;;27.60;85.50;;;;;;5092601;28;20035;-83
2021/06/12 10:44:57;;;;;;;4.05;3.25;;;27.60;90.90;;;;;;5113896;28;20039;-81
2021/06/12 10:47:46;;;;;;;7.90;4.53;;;27.50;92.00;;;;;;5119120;27;20063;-81
2021/06/12 10:50:26;;;;;;;5.63;3.17;;;27.50;88.90;;;;;;5101109;28;20032;-82
2021/06/12 10:53:18;;;;;;;4.20;2.78;;;27.50;91.00;;;;;;5108647;28;20031;-82
2021/06/12 10:55:50;;;;;;;5.63;3.63;;;27.60;91.10;;;;;;5107817;28;20390;-80
2021/06/12 10:58:31;;;;;;;4.93;2.83;;;27.60;88.00;;;;;;5102643;28;20404;-80
2021/06/12 11:01:05;;;;;;;3.25;2.65;;;27.50;91.90;;;;;;5096025;28;20030;-81
2021/06/12 11:03:54;;;;;;;3.00;2.67;;;27.50;86.40;;;;;;5101157;28;20016;-80
2021/06/12 11:06:44;;;;;;;2.83;2.55;;;27.40;87.60;;;;;;5110257;28;20102;-80
2021/06/12 11:09:18;;;;;;;2.28;2.08;;;27.20;87.60;;;;;;5096626;28;20115;-80
2021/06/12 11:11:52;;;;;;;2.83;2.13;;;27.10;83.20;;;;;;5085515;28;20028;-82
2021/06/12 11:14:23;;;;;;;3.22;1.90;;;27.00;91.30;;;;;;5086425;28;20622;-83
2021/06/12 11:17:04;;;;;;;2.13;1.92;;;27.10;87.90;;;;;;5104019;28;20020;-82
2021/06/12 11:19:33;;;;;;;5.03;2.60;;;27.30;85.70;;;;;;5108712;28;20020;-82
2021/06/12 11:22:24;;;;;;;2.03;1.83;;;27.30;84.40;;;;;;5108898;28;20031;-82
2021/06/12 11:25:02;;;;;;;1.50;1.40;;;27.30;81.10;;;;;;5110828;28;20031;-79
2021/06/12 11:27:35;;;;;;;1.60;1.50;;;27.30;79.80;;;;;;5100241;28;20500;-79
2021/06/12 11:30:19;;;;;;;2.05;1.52;;;27.30;82.40;;;;;;5091254;28;20033;-81
2021/06/12 11:33:08;;;;;;;1.75;1.65;;;27.30;80.90;;;;;;5104603;28;20065;-80
2021/06/12 11:35:59;;;;;;;2.35;1.50;;;27.20;82.20;;;;;;5082615;28;20028;-79
2021/06/12 11:38:34;;;;;;;1.52;1.23;;;27.30;79.30;;;;;;5108123;28;20036;-80
2021/06/12 11:41:01;;;;;;;1.65;1.55;;;27.30;77.90;;;;;;5103813;28;20023;-81
2021/06/12 11:43:40;;;;;;;8.55;2.90;;;27.30;80.90;;;;;;5112698;28;20024;-80
2021/06/12 11:46:18;;;;;;;2.67;1.80;;;27.30;84.40;;;;;;5122891;27;20110;-80
2021/06/12 11:48:50;;;;;;;1.67;1.58;;;27.30;79.00;;;;;;5094947;28;20095;-81
2021/06/12 11:51:25;;;;;;;4.03;1.48;;;27.30;83.10;;;;;;5105059;28;20087;-79
2021/06/12 11:54:06;;;;;;;2.42;1.52;;;27.30;85.30;;;;;;5104936;28;20062;-81
2021/06/12 11:56:57;;;;;;;1.80;1.50;;;27.50;82.70;;;;;;5113596;28;20329;-80
2021/06/12 11:59:25;;;;;;;1.40;1.30;;;27.60;81.40;;;;;;5104023;28;20024;-79
2021/06/12 12:02:00;;;;;;;5.05;2.42;;;27.40;77.90;;;;;;5101878;28;20040;-80
2021/06/12 12:04:33;;;;;;;3.45;2.00;;;27.20;78.30;;;;;;5112927;28;20035;-80
2021/06/12 12:06:58;;;;;;;6.40;2.25;;;26.90;83.80;;;;;;5106982;27;20042;-83
2021/06/12 12:09:30;;;;;;;3.15;2.22;;;26.60;82.60;;;;;;5119425;27;20031;-82
2021/06/12 12:12:02;;;;;;;2.03;1.67;;;26.40;83.70;;;;;;5115180;28;20035;-82
2021/06/12 12:14:28;;;;;;;2.80;1.70;;;26.20;83.30;;;;;;5109635;28;20024;-82
2021/06/12 12:16:54;;;;;;;2.88;1.80;;;26.10;85.10;;;;;;5099062;28;20024;-81
2021/06/12 12:19:20;;;;;;;3.72;1.70;;;25.90;87.50;;;;;;5116870;28;20141;-81
2021/06/12 12:21:52;;;;;;;1.60;1.50;;;25.90;89.60;;;;;;5099541;28;20515;-81
2021/06/12 12:24:18;;;;;;;3.00;1.50;;;26.00;85.40;;;;;;5117068;28;20051;-82
2021/06/12 12:27:10;;;;;;;2.10;1.65;;;26.10;89.90;;;;;;5098984;28;20035;-81
2021/06/12 12:29:40;;;;;;;3.17;1.65;;;26.60;87.50;;;;;;5103053;28;20085;-81
2021/06/12 12:32:07;;;;;;;1.73;1.60;;;26.90;83.40;;;;;;5114101;28;20042;-81
2021/06/12 12:34:38;;;;;;;2.22;1.50;;;27.20;87.60;;;;;;5094975;28;20118;-80
2021/06/12 12:37:16;;;;;;;2.13;1.92;;;27.40;87.00;;;;;;5111963;28;20030;-80
2021/06/12 12:39:44;;;;;;;3.90;2.40;;;27.70;80.00;;;;;;5091310;28;20479;-80
2021/06/12 12:42:19;;;;;;;13.73;7.32;;;27.80;82.10;;;;;;5101811;28;20037;-79
2021/06/12 12:44:47;;;;;;;2.42;2.13;;;28.00;84.40;;;;;;5101377;27;20031;-80
2021/06/12 12:47:18;;;;;;;1.73;1.63;;;28.30;82.90;;;;;;5111383;27;20122;-82